Main page
METAR-TAF:

METAR-TAF

Airports :

Khartoum, Sudan

Khartoum International Airport

latitude: 15-36N, longitude: 032-33E, elevation: 382 m

Current weather observation

The report was made 26 minutes ago, at 11:30 UTC
Wind 11 kt from the Southwest
Temperature 37°C
Humidity 27%
Pressure 1009 hPa
Visibility: 8000 m

METAR: HSSS 211130Z 22011KT 8000 37/15 Q1009 NOSIG

Time: 14:56 (11:56 UTC)

Forecast

The report was made 56 minutes ago, at 11:00 UTC
Forecast valid from 21 at 12 UTC to 22 at 18 UTC
Wind 14 kt from the Southwest with gusts up to 24 kt
Visibility: 6000 m
Few clouds at a height of 4000 ft
Broken clouds at a height of 14000 ft
Temporary
from 21 at 15 UTC to 21 at 18 UTC
Visibility: 2000 m
Blowing dust
Probability 30% :
Temporary
from 21 at 18 UTC to 21 at 23 UTC
Visibility: 4000 m
Few clouds at a height of 4500 ft, Cumulonimbus.

TAF: HSSS 211100Z 2112/2218 22014G24KT 6000 FEW040 BKN140 TEMPO 2115/2118 2000 BLDU PROB30 TEMPO 2118/2123 4000 BLDU/TSRA FEW045CB

Weather observations and forecasts of more than 4000 airports (METAR and TAF reports).

The available stations are represented by yellow and red dots on the map.

Hover mouse over dot to see the name of the station.

Then click to see weather observations and forecasts.

To change the map : click on the green buttons with a black cross to zoom in, on the green button with a dash to zoom out, or on the green arrows for adjacent maps.


METAR-TAF: